createdAt,value
2023-01-12T00:02:38.569Z,-9.22
2023-01-12T00:07:40.967Z,-9.67
2023-01-12T00:12:43.269Z,-9.55
2023-01-12T00:17:45.617Z,-9.70
2023-01-12T00:22:49.935Z,-9.52
2023-01-12T00:27:52.270Z,-9.24
2023-01-12T00:32:54.548Z,-9.35
2023-01-12T00:37:56.818Z,-9.60
2023-01-12T00:43:17.514Z,-9.34
2023-01-12T00:48:22.152Z,-9.64
2023-01-12T00:53:24.389Z,-9.48
2023-01-12T00:58:28.901Z,-9.42
2023-01-12T01:03:31.122Z,-9.85
2023-01-12T01:08:37.049Z,-9.28
2023-01-12T01:13:44.358Z,-9.32
2023-01-12T01:18:46.643Z,-9.50
2023-01-12T01:23:48.940Z,-9.66
2023-01-12T01:28:51.774Z,-9.19
2023-01-12T01:33:54.163Z,-9.90
2023-01-12T01:38:56.508Z,-9.66
2023-01-12T01:44:26.439Z,-8.96
2023-01-12T01:49:30.221Z,-8.89
2023-01-12T01:54:38.644Z,-9.33
2023-01-12T01:59:44.627Z,-9.48
2023-01-12T02:04:46.996Z,-9.60
2023-01-12T02:09:49.315Z,-9.26
2023-01-12T02:15:11.087Z,-9.20
2023-01-12T02:20:26.711Z,-8.96
2023-01-12T02:26:18.606Z,-8.91
2023-01-12T02:31:43.632Z,-9.17
2023-01-12T02:37:23.424Z,-8.86
2023-01-12T02:42:56.578Z,-8.89
2023-01-12T02:48:10.036Z,-8.90
2023-01-12T02:53:28.449Z,-9.25
2023-01-12T02:58:33.952Z,-9.45
2023-01-12T03:03:39.933Z,-9.15
2023-01-12T03:08:42.300Z,-9.01
2023-01-12T03:13:50.041Z,-9.48
2023-01-12T03:18:58.257Z,-8.86
2023-01-12T03:24:07.222Z,-9.16
2023-01-12T03:29:11.011Z,-8.82
2023-01-12T03:34:13.386Z,-9.37
2023-01-12T03:39:38.507Z,-9.01
2023-01-12T03:44:46.952Z,-9.03
2023-01-12T03:50:05.894Z,-9.19
2023-01-12T03:55:10.732Z,-9.14
2023-01-12T04:00:14.596Z,-9.18
2023-01-12T04:05:17.353Z,-9.31
2023-01-12T04:10:19.629Z,-9.11
2023-01-12T04:15:21.999Z,-9.49
2023-01-12T04:20:24.363Z,-9.03
2023-01-12T04:25:26.753Z,-9.10
2023-01-12T04:30:33.636Z,-9.18
2023-01-12T04:35:35.984Z,-9.01
2023-01-12T04:40:38.459Z,-8.74
2023-01-12T04:45:43.945Z,-10.68
2023-01-12T04:50:46.556Z,-9.82
2023-01-12T04:55:49.883Z,-9.02
2023-01-12T05:00:58.322Z,-8.73
2023-01-12T05:06:02.320Z,-8.73
2023-01-12T05:11:04.722Z,-9.80
2023-01-12T05:16:11.958Z,-8.70
2023-01-12T05:21:15.931Z,-9.13
2023-01-12T05:26:18.705Z,-9.25
2023-01-12T05:31:21.074Z,-8.77
2023-01-12T05:36:25.686Z,-8.92
2023-01-12T05:41:28.901Z,-8.99
2023-01-12T05:46:33.513Z,-8.86
2023-01-12T05:51:35.755Z,-9.06
2023-01-12T05:56:38.267Z,-8.86
2023-01-12T06:01:41.427Z,-8.97
2023-01-12T06:06:43.716Z,-8.86
2023-01-12T06:12:04.333Z,-9.08
2023-01-12T06:17:08.120Z,-9.11
2023-01-12T06:22:10.409Z,-8.81
2023-01-12T06:27:12.725Z,-9.27
2023-01-12T06:32:15.060Z,-9.17
2023-01-12T06:37:17.316Z,-9.11
2023-01-12T06:42:32.159Z,-9.36
2023-01-12T06:47:34.580Z,-9.17
2023-01-12T06:52:37.092Z,-9.26
2023-01-12T06:57:39.487Z,-9.13
2023-01-12T07:02:42.586Z,-9.74
2023-01-12T07:07:45.271Z,-9.04
2023-01-12T07:12:47.547Z,-9.06
2023-01-12T07:17:56.183Z,-8.89
2023-01-12T07:22:58.581Z,-9.01
2023-01-12T07:28:01.054Z,-9.37
2023-01-12T07:33:10.979Z,-9.47
2023-01-12T07:38:13.602Z,-9.35
2023-01-12T07:43:17.540Z,-8.48
2023-01-12T07:48:21.484Z,-7.99
2023-01-12T07:53:24.148Z,-7.01
2023-01-12T07:58:27.856Z,-6.13
2023-01-12T08:03:30.209Z,-5.32
2023-01-12T08:08:32.665Z,-5.73
2023-01-12T08:13:35.728Z,-7.49
2023-01-12T08:18:55.534Z,-7.67
2023-01-12T08:23:58.105Z,-7.53
2023-01-12T08:29:04.861Z,-8.04
2023-01-12T08:34:08.117Z,-8.41
2023-01-12T08:39:10.404Z,-10.12
2023-01-12T08:44:12.823Z,-8.74
2023-01-12T08:49:17.161Z,-8.94
2023-01-12T08:54:20.579Z,-8.76
2023-01-12T08:59:22.940Z,-8.92
2023-01-12T09:04:25.351Z,-9.82
2023-01-12T09:09:27.887Z,-8.79
2023-01-12T09:14:30.237Z,-9.07
2023-01-12T09:19:32.573Z,-8.94
2023-01-12T09:24:34.817Z,-8.97
2023-01-12T09:29:37.059Z,-9.89
2023-01-12T09:34:39.382Z,-9.19
2023-01-12T09:39:41.623Z,-8.82
2023-01-12T09:45:11.429Z,-9.29
2023-01-12T09:50:42.312Z,-8.77
2023-01-12T09:56:05.109Z,-8.96
2023-01-12T10:01:20.496Z,-8.85
2023-01-12T10:06:30.548Z,-9.09
2023-01-12T10:11:49.058Z,-9.26
2023-01-12T10:17:10.108Z,-8.60
2023-01-12T10:22:39.423Z,-8.58
2023-01-12T10:27:44.661Z,-9.17
2023-01-12T10:32:47.059Z,-8.87
2023-01-12T10:37:53.069Z,-8.91
2023-01-12T10:43:20.056Z,-8.79
2023-01-12T10:48:23.152Z,-8.81
2023-01-12T10:53:41.645Z,-8.94
2023-01-12T10:58:47.999Z,-8.47
2023-01-12T11:03:50.330Z,-8.91
2023-01-12T11:08:52.952Z,-8.93
2023-01-12T11:13:58.011Z,-8.62
2023-01-12T11:19:00.220Z,-8.49
2023-01-12T11:24:15.311Z,-8.73
2023-01-12T11:29:32.236Z,-8.44
2023-01-12T11:34:40.080Z,-8.58
2023-01-12T11:39:44.029Z,-9.66
2023-01-12T11:44:55.427Z,-8.39
2023-01-12T11:50:23.685Z,-8.36
2023-01-12T11:55:47.760Z,-8.33
2023-01-12T12:00:59.004Z,-8.60
2023-01-12T12:06:49.114Z,-8.43
2023-01-12T12:12:13.106Z,-8.33
2023-01-12T12:17:34.069Z,-8.30
2023-01-12T12:23:08.673Z,-8.28
2023-01-12T12:28:31.921Z,-8.57
2023-01-12T12:33:40.208Z,-8.35
2023-01-12T12:39:24.939Z,-8.33
2023-01-12T12:45:04.161Z,-8.39
2023-01-12T12:50:13.832Z,-8.89
2023-01-12T12:55:16.172Z,-8.65
2023-01-12T13:00:46.957Z,-8.74
2023-01-12T13:05:51.183Z,-9.05
2023-01-12T13:10:58.955Z,-8.74
2023-01-12T13:16:19.584Z,-8.45
2023-01-12T13:21:56.349Z,-8.48
2023-01-12T13:27:01.021Z,-8.52
2023-01-12T13:32:41.479Z,-8.49
2023-01-12T13:37:58.845Z,-8.64
2023-01-12T13:43:16.047Z,-9.03
2023-01-12T13:48:19.660Z,-8.81
2023-01-12T13:53:28.885Z,-9.10
2023-01-12T13:58:38.576Z,-8.51
2023-01-12T14:03:40.868Z,-8.59
2023-01-12T14:09:08.948Z,-8.61
2023-01-12T14:14:44.933Z,-8.62
2023-01-12T14:19:54.434Z,-8.62
2023-01-12T14:25:22.896Z,-9.05
2023-01-12T14:30:27.698Z,-9.07
2023-01-12T14:35:29.968Z,-8.81
2023-01-12T14:40:33.314Z,-8.58
2023-01-12T14:45:54.102Z,-9.01
2023-01-12T14:51:14.381Z,-8.94
2023-01-12T14:56:21.496Z,-8.59
2023-01-12T15:01:36.161Z,-8.85
2023-01-12T15:06:41.149Z,-8.92
2023-01-12T15:11:43.460Z,-8.92
2023-01-12T15:17:04.067Z,-8.75
2023-01-12T15:22:32.729Z,-8.79
2023-01-12T15:27:35.422Z,-8.80
2023-01-12T15:32:48.800Z,-8.50
2023-01-12T15:37:54.457Z,-9.53
2023-01-12T15:42:58.953Z,-8.35
2023-01-12T15:48:02.659Z,-9.43
2023-01-12T15:53:15.148Z,-8.70
2023-01-12T15:58:19.768Z,-9.38
2023-01-12T16:03:54.636Z,-8.73
2023-01-12T16:08:44.281Z,-8.36
2023-01-12T16:13:48.432Z,-8.25
2023-01-12T16:18:50.649Z,-8.71
2023-01-12T16:23:53.932Z,-8.74
2023-01-12T16:28:57.913Z,-8.78
2023-01-12T16:34:00.286Z,-8.56
2023-01-12T16:39:02.855Z,-9.04
2023-01-12T16:44:05.329Z,-8.33
2023-01-12T16:49:07.581Z,-8.08
2023-01-12T16:54:09.855Z,-8.85
2023-01-12T16:59:12.141Z,-8.58
2023-01-12T17:04:14.826Z,-8.44
2023-01-12T17:09:17.375Z,-8.58
2023-01-12T17:14:25.821Z,-8.65
2023-01-12T17:19:29.165Z,-8.16
2023-01-12T17:24:32.368Z,-8.67
2023-01-12T17:29:35.075Z,-8.28
2023-01-12T17:34:39.618Z,-8.16
2023-01-12T17:39:45.261Z,-8.18
2023-01-12T17:44:47.655Z,-8.43
2023-01-12T17:49:50.054Z,-8.19
2023-01-12T17:54:52.467Z,-8.30
2023-01-12T17:59:55.089Z,-8.37
2023-01-12T18:04:57.500Z,-8.42
2023-01-12T18:09:59.886Z,-9.23
2023-01-12T18:15:02.208Z,-8.20
2023-01-12T18:20:07.571Z,-8.47
2023-01-12T18:25:10.151Z,-8.13
2023-01-12T18:30:12.843Z,-7.86
2023-01-12T18:35:17.065Z,-8.16
2023-01-12T18:40:19.639Z,-8.26
2023-01-12T18:45:24.558Z,-8.73
2023-01-12T18:50:48.387Z,-8.70
2023-01-12T18:56:01.574Z,-8.05
2023-01-12T19:01:14.093Z,-8.23
2023-01-12T19:06:51.101Z,-7.87
2023-01-12T19:11:53.476Z,-7.85
2023-01-12T19:17:14.261Z,-8.88
2023-01-12T19:22:36.045Z,-8.47
2023-01-12T19:27:56.804Z,-8.02
2023-01-12T19:33:05.324Z,-8.15
2023-01-12T19:38:11.930Z,-8.18
2023-01-12T19:43:20.568Z,-7.67
2023-01-12T19:48:25.169Z,-7.99
2023-01-12T19:53:27.448Z,-7.76
2023-01-12T19:58:29.850Z,-7.99
2023-01-12T20:03:32.416Z,-8.62
2023-01-12T20:08:35.001Z,-7.88
2023-01-12T20:13:37.398Z,-7.91
2023-01-12T20:18:43.650Z,-7.94
2023-01-12T20:23:45.970Z,-7.82
2023-01-12T20:28:48.251Z,-7.83
2023-01-12T20:33:50.618Z,-7.60
2023-01-12T20:38:55.374Z,-7.72
2023-01-12T20:43:57.721Z,-7.86
2023-01-12T20:49:02.572Z,-8.32
2023-01-12T20:54:05.698Z,-7.79
2023-01-12T20:59:08.824Z,-8.48
2023-01-12T21:04:11.455Z,-8.68
2023-01-12T21:09:13.817Z,-8.15
2023-01-12T21:14:16.502Z,-7.76
2023-01-12T21:19:19.340Z,-7.76
2023-01-12T21:24:21.704Z,-8.07
2023-01-12T21:29:25.557Z,-7.55
2023-01-12T21:34:27.932Z,-7.85
2023-01-12T21:39:30.433Z,-8.28
2023-01-12T21:44:32.880Z,-10.11
2023-01-12T21:49:35.085Z,-8.42
2023-01-12T21:54:37.501Z,-8.15
2023-01-12T21:59:39.777Z,-8.36
2023-01-12T22:04:42.076Z,-8.12
2023-01-12T22:09:44.527Z,-8.29
2023-01-12T22:14:46.837Z,-7.96
2023-01-12T22:19:49.524Z,-7.77
2023-01-12T22:24:51.751Z,-7.68
2023-01-12T22:29:54.033Z,-8.52
2023-01-12T22:34:58.877Z,-8.03
2023-01-12T22:40:01.253Z,-7.63
2023-01-12T22:45:06.008Z,-8.00
2023-01-12T22:50:09.760Z,-7.39
2023-01-12T22:55:12.120Z,-7.63
2023-01-12T23:00:19.089Z,-7.70
2023-01-12T23:05:21.462Z,-7.36
2023-01-12T23:10:23.793Z,-7.64
2023-01-12T23:15:26.024Z,-7.86
2023-01-12T23:20:28.368Z,-7.71
2023-01-12T23:25:32.968Z,-7.89
2023-01-12T23:30:35.419Z,-7.35
2023-01-12T23:35:40.221Z,-7.33
2023-01-12T23:40:42.528Z,-7.65
2023-01-12T23:45:44.847Z,-8.29
2023-01-12T23:50:47.091Z,-7.51
2023-01-12T23:55:49.298Z,-7.33
